createdAt,value
2019-01-29T00:00:01.132Z,0.72
2019-01-29T00:02:34.435Z,0.76
2019-01-29T00:05:05.728Z,0.78
2019-01-29T00:07:37.652Z,0.69
2019-01-29T00:10:09.072Z,0.80
2019-01-29T00:12:39.312Z,0.83
2019-01-29T00:15:11.670Z,0.86
2019-01-29T00:17:42.228Z,0.88
2019-01-29T00:20:13.220Z,0.88
2019-01-29T00:22:44.817Z,0.74
2019-01-29T00:25:15.023Z,0.90
2019-01-29T00:27:46.799Z,0.99
2019-01-29T00:30:17.017Z,1.01
2019-01-29T00:32:47.255Z,1.05
2019-01-29T00:35:17.469Z,1.05
2019-01-29T00:37:47.694Z,1.06
2019-01-29T00:40:19.121Z,1.06
2019-01-29T00:42:49.356Z,1.08
2019-01-29T00:45:19.561Z,1.08
2019-01-29T00:47:49.806Z,1.12
2019-01-29T00:50:20.014Z,1.14
2019-01-29T00:52:50.255Z,1.15
2019-01-29T00:55:20.461Z,1.19
2019-01-29T00:57:51.622Z,1.18
2019-01-29T01:00:23.770Z,1.18
2019-01-29T01:02:55.134Z,1.17
2019-01-29T01:05:25.342Z,1.19
2019-01-29T01:07:55.582Z,1.19
2019-01-29T01:10:25.787Z,1.22
2019-01-29T01:12:56.020Z,1.21
2019-01-29T01:15:27.153Z,1.19
2019-01-29T01:17:57.403Z,1.21
2019-01-29T01:20:27.608Z,1.24
2019-01-29T01:22:57.834Z,1.26
2019-01-29T01:25:28.040Z,1.26
2019-01-29T01:27:58.286Z,1.24
2019-01-29T01:30:28.501Z,1.25
2019-01-29T01:32:58.720Z,1.27
2019-01-29T01:35:28.936Z,1.30
2019-01-29T01:37:59.167Z,1.32
2019-01-29T01:40:29.384Z,1.33
2019-01-29T01:42:59.613Z,1.34
2019-01-29T01:45:29.818Z,1.35
2019-01-29T01:48:00.061Z,1.36
2019-01-29T01:50:30.270Z,1.38
2019-01-29T01:53:00.502Z,1.38
2019-01-29T01:55:30.705Z,1.40
2019-01-29T01:58:00.943Z,1.42
2019-01-29T02:00:31.165Z,1.43
2019-01-29T02:03:01.402Z,1.44
2019-01-29T02:05:31.608Z,1.43
2019-01-29T02:08:01.841Z,1.47
2019-01-29T02:10:32.056Z,1.47
2019-01-29T02:13:02.284Z,1.49
2019-01-29T02:15:32.493Z,1.47
2019-01-29T02:18:03.602Z,1.49
2019-01-29T02:20:33.849Z,1.44
2019-01-29T02:23:08.148Z,1.49
2019-01-29T02:25:36.153Z,1.48
2019-01-29T02:28:06.651Z,1.51
2019-01-29T02:30:36.896Z,1.51
2019-01-29T02:33:07.135Z,1.51
2019-01-29T02:35:37.346Z,1.54
2019-01-29T02:38:07.579Z,1.59
2019-01-29T02:40:37.784Z,1.58
2019-01-29T02:43:08.026Z,1.57
2019-01-29T02:45:38.233Z,1.50
2019-01-29T02:48:08.487Z,1.49
2019-01-29T02:50:38.692Z,1.52
2019-01-29T02:53:17.787Z,1.57
2019-01-29T02:55:40.960Z,1.55
2019-01-29T02:58:11.524Z,1.54
2019-01-29T03:00:41.737Z,1.49
2019-01-29T03:03:11.962Z,1.52
2019-01-29T03:05:42.170Z,1.39
2019-01-29T03:08:13.021Z,1.38
2019-01-29T03:10:44.139Z,1.36
2019-01-29T03:13:14.382Z,1.39
2019-01-29T03:15:44.595Z,1.34
2019-01-29T03:18:14.822Z,1.39
2019-01-29T03:20:45.027Z,1.32
2019-01-29T03:23:15.269Z,1.32
2019-01-29T03:25:45.475Z,1.33
2019-01-29T03:28:15.705Z,1.34
2019-01-29T03:30:45.919Z,1.30
2019-01-29T03:33:16.185Z,1.29
2019-01-29T03:35:46.364Z,1.26
2019-01-29T03:38:16.603Z,1.26
2019-01-29T03:40:46.811Z,1.28
2019-01-29T03:43:17.053Z,1.26
2019-01-29T03:45:47.260Z,1.30
2019-01-29T03:48:17.495Z,1.38
2019-01-29T03:50:47.693Z,1.37
2019-01-29T03:53:18.860Z,1.39
2019-01-29T03:55:49.065Z,1.43
2019-01-29T03:58:20.240Z,1.51
2019-01-29T04:00:50.436Z,1.48
2019-01-29T04:03:20.685Z,1.52
2019-01-29T04:05:50.879Z,1.58
2019-01-29T04:08:21.120Z,1.54
2019-01-29T04:10:51.327Z,1.62
2019-01-29T04:13:21.556Z,1.62
2019-01-29T04:15:51.761Z,1.63
2019-01-29T04:18:22.008Z,1.63
2019-01-29T04:20:52.216Z,1.55
2019-01-29T04:23:22.453Z,1.56
2019-01-29T04:25:52.653Z,1.64
2019-01-29T04:28:22.893Z,1.66
2019-01-29T04:30:53.097Z,1.73
2019-01-29T04:33:23.335Z,1.77
2019-01-29T04:35:55.175Z,1.77
2019-01-29T04:38:25.400Z,1.75
2019-01-29T04:40:56.752Z,1.74
2019-01-29T04:43:26.992Z,1.88
2019-01-29T04:45:57.195Z,1.94
2019-01-29T04:48:27.437Z,1.87
2019-01-29T04:50:57.640Z,1.82
2019-01-29T04:53:27.885Z,1.83
2019-01-29T04:55:59.706Z,1.77
2019-01-29T04:58:30.783Z,1.80
2019-01-29T05:01:00.997Z,1.75
2019-01-29T05:03:31.238Z,1.84
2019-01-29T05:06:01.435Z,1.88
2019-01-29T05:08:32.603Z,1.81
2019-01-29T05:11:02.809Z,1.82
2019-01-29T05:13:33.051Z,1.80
2019-01-29T05:16:20.209Z,1.80
2019-01-29T05:19:29.709Z,1.75
2019-01-29T05:21:59.918Z,1.76
2019-01-29T05:24:31.480Z,1.74
2019-01-29T05:27:01.888Z,1.93
2019-01-29T05:29:32.139Z,2.03
2019-01-29T05:32:03.869Z,2.00
2019-01-29T05:34:34.117Z,2.14
2019-01-29T05:37:04.316Z,2.12
2019-01-29T05:39:34.561Z,2.14
2019-01-29T05:42:04.766Z,2.19
2019-01-29T05:44:35.006Z,2.09
2019-01-29T05:47:05.215Z,1.99
2019-01-29T05:49:35.464Z,1.97
2019-01-29T05:52:06.582Z,1.97
2019-01-29T05:54:37.744Z,2.06
2019-01-29T05:57:08.028Z,3.79
2019-01-29T05:59:38.543Z,4.47
2019-01-29T06:02:09.324Z,5.68
2019-01-29T06:04:40.780Z,4.42
2019-01-29T06:07:11.909Z,3.92
2019-01-29T06:09:43.073Z,3.56
2019-01-29T06:12:14.194Z,3.20
2019-01-29T06:14:47.825Z,2.99
2019-01-29T06:17:27.203Z,2.78
2019-01-29T06:19:52.870Z,2.69
2019-01-29T06:22:24.362Z,2.60
2019-01-29T06:24:56.692Z,2.61
2019-01-29T06:27:27.847Z,2.37
2019-01-29T06:29:58.974Z,2.35
2019-01-29T06:32:30.411Z,2.28
2019-01-29T06:35:01.574Z,2.19
2019-01-29T06:37:32.696Z,2.05
2019-01-29T06:40:04.027Z,2.12
2019-01-29T06:42:34.366Z,2.11
2019-01-29T06:45:07.808Z,2.15
2019-01-29T06:47:38.194Z,2.08
2019-01-29T06:50:15.054Z,2.07
2019-01-29T06:52:45.398Z,2.12
2019-01-29T06:55:19.731Z,2.10
2019-01-29T06:57:55.368Z,2.02
2019-01-29T07:00:29.855Z,2.04
2019-01-29T07:03:00.749Z,2.10
2019-01-29T07:05:32.205Z,2.20
2019-01-29T07:08:03.649Z,2.25
2019-01-29T07:10:34.809Z,2.25
2019-01-29T07:13:05.306Z,2.26
2019-01-29T07:15:53.366Z,2.30
2019-01-29T07:18:40.087Z,2.31
2019-01-29T07:21:12.264Z,2.30
2019-01-29T07:23:42.781Z,2.34
2019-01-29T07:26:13.929Z,2.41
2019-01-29T07:28:45.064Z,2.37
2019-01-29T07:31:16.247Z,2.51
2019-01-29T07:33:46.494Z,2.61
2019-01-29T07:36:18.325Z,2.51
2019-01-29T07:38:48.534Z,2.56
2019-01-29T07:41:18.776Z,2.61
2019-01-29T07:43:48.981Z,2.45
2019-01-29T07:46:19.210Z,2.52
2019-01-29T07:48:49.425Z,2.58
2019-01-29T07:51:19.657Z,2.43
2019-01-29T07:53:49.884Z,2.34
2019-01-29T07:56:20.111Z,2.36
2019-01-29T07:58:50.328Z,2.60
2019-01-29T08:01:20.578Z,2.54
2019-01-29T08:03:50.813Z,2.38
2019-01-29T08:06:21.073Z,2.47
2019-01-29T08:08:51.299Z,2.49
2019-01-29T08:11:21.530Z,2.59
2019-01-29T08:13:51.812Z,2.44
2019-01-29T08:16:22.986Z,2.44
2019-01-29T08:18:54.119Z,2.55
2019-01-29T08:21:25.282Z,2.56
2019-01-29T08:23:56.395Z,2.69
2019-01-29T08:26:27.890Z,2.86
2019-01-29T08:28:59.293Z,2.88
2019-01-29T08:31:30.463Z,2.99
2019-01-29T08:34:00.701Z,3.01
2019-01-29T08:36:32.141Z,3.04
2019-01-29T08:39:05.265Z,3.06
2019-01-29T08:41:35.687Z,2.98
2019-01-29T08:44:07.079Z,3.06
2019-01-29T08:46:37.360Z,2.92
2019-01-29T08:49:08.760Z,2.82
2019-01-29T08:51:39.913Z,2.79
2019-01-29T08:54:12.274Z,2.83
2019-01-29T08:56:43.469Z,2.65
2019-01-29T08:59:15.800Z,2.90
2019-01-29T09:01:49.102Z,2.91
2019-01-29T09:04:20.243Z,3.16
2019-01-29T09:06:51.416Z,3.24
2019-01-29T09:09:22.845Z,3.19
2019-01-29T09:11:53.086Z,3.14
2019-01-29T09:14:24.523Z,2.99
2019-01-29T09:16:54.755Z,2.81
2019-01-29T09:19:24.971Z,2.85
2019-01-29T09:21:57.348Z,2.81
2019-01-29T09:24:27.607Z,2.80
2019-01-29T09:26:59.028Z,2.67
2019-01-29T09:29:30.467Z,2.72
2019-01-29T09:32:01.944Z,2.83
2019-01-29T09:34:32.188Z,2.85
2019-01-29T09:37:03.604Z,2.75
2019-01-29T09:39:35.013Z,2.80
2019-01-29T09:42:07.270Z,2.80
2019-01-29T09:44:37.617Z,2.78
2019-01-29T09:47:09.261Z,2.74
2019-01-29T09:49:39.600Z,2.58
2019-01-29T09:52:10.751Z,2.72
2019-01-29T09:54:41.880Z,2.49
2019-01-29T09:57:14.897Z,2.68
2019-01-29T09:59:46.016Z,2.72
2019-01-29T10:02:18.415Z,2.61
2019-01-29T10:04:49.835Z,2.76
2019-01-29T10:07:21.001Z,2.92
2019-01-29T10:09:52.122Z,3.01
2019-01-29T10:12:23.294Z,3.20
2019-01-29T10:14:54.403Z,3.31
2019-01-29T10:17:26.036Z,3.22
2019-01-29T10:20:02.821Z,3.16
2019-01-29T10:22:30.923Z,3.34
2019-01-29T10:25:03.667Z,3.37
2019-01-29T10:27:35.999Z,3.18
2019-01-29T10:30:10.648Z,3.24
2019-01-29T10:32:41.063Z,3.23
2019-01-29T10:35:23.309Z,3.43
2019-01-29T10:37:54.702Z,3.48
2019-01-29T10:40:27.456Z,3.46
2019-01-29T10:42:58.887Z,3.39
2019-01-29T10:45:31.022Z,3.43
2019-01-29T10:48:04.011Z,3.29
2019-01-29T10:50:34.547Z,3.22
2019-01-29T10:53:06.653Z,3.15
2019-01-29T10:55:47.428Z,3.15
2019-01-29T10:58:18.916Z,2.90
2019-01-29T11:00:50.036Z,2.88
2019-01-29T11:03:21.532Z,2.86
2019-01-29T11:05:52.933Z,3.08
2019-01-29T11:08:29.373Z,3.34
2019-01-29T11:11:01.216Z,3.31
2019-01-29T11:13:33.760Z,3.52
2019-01-29T11:16:04.037Z,3.51
2019-01-29T11:18:39.331Z,3.46
2019-01-29T11:21:10.764Z,3.22
2019-01-29T11:23:46.279Z,3.15
2019-01-29T11:26:23.156Z,3.13
2019-01-29T11:28:54.148Z,3.11
2019-01-29T11:31:24.363Z,3.12
2019-01-29T11:33:54.596Z,2.97
2019-01-29T11:36:26.229Z,3.19
2019-01-29T11:38:58.110Z,3.19
2019-01-29T11:41:28.309Z,3.22
2019-01-29T11:44:00.573Z,3.11
2019-01-29T11:46:30.610Z,3.04
2019-01-29T11:49:02.723Z,2.97
2019-01-29T11:51:32.867Z,2.90
2019-01-29T11:54:03.115Z,2.78
2019-01-29T11:56:33.324Z,2.72
2019-01-29T11:59:05.565Z,2.78
2019-01-29T12:01:37.448Z,2.60
2019-01-29T12:04:09.848Z,2.35
2019-01-29T12:06:41.283Z,2.22
2019-01-29T12:09:11.527Z,2.29
2019-01-29T12:11:42.964Z,2.29
2019-01-29T12:14:13.208Z,2.09
2019-01-29T12:16:43.427Z,1.97
2019-01-29T12:19:13.657Z,2.08
2019-01-29T12:21:45.077Z,2.14
2019-01-29T12:24:19.818Z,2.20
2019-01-29T12:26:56.296Z,2.25
2019-01-29T12:29:26.528Z,2.29
2019-01-29T12:31:57.953Z,2.53
2019-01-29T12:34:29.434Z,2.69
2019-01-29T12:37:02.834Z,2.62
2019-01-29T12:39:37.911Z,2.73
2019-01-29T12:42:09.290Z,2.55
2019-01-29T12:44:39.525Z,2.44
2019-01-29T12:47:10.964Z,2.46
2019-01-29T12:49:44.334Z,2.50
2019-01-29T12:52:17.332Z,2.45
2019-01-29T12:54:49.320Z,2.47
2019-01-29T12:57:22.812Z,2.52
2019-01-29T12:59:53.146Z,2.50
2019-01-29T13:02:23.361Z,2.46
2019-01-29T13:04:57.045Z,2.36
2019-01-29T13:07:30.960Z,2.41
2019-01-29T13:10:01.396Z,2.31
2019-01-29T13:12:32.520Z,2.33
2019-01-29T13:15:06.266Z,2.10
2019-01-29T13:17:36.658Z,2.22
2019-01-29T13:20:10.400Z,2.27
2019-01-29T13:22:40.783Z,2.37
2019-01-29T13:25:12.962Z,2.43
2019-01-29T13:27:44.305Z,2.50
2019-01-29T13:30:26.613Z,2.41
2019-01-29T13:32:57.967Z,2.13
2019-01-29T13:35:33.267Z,2.08
2019-01-29T13:38:03.621Z,2.01
2019-01-29T13:40:34.786Z,1.79
2019-01-29T13:43:05.731Z,1.66
2019-01-29T13:45:37.522Z,1.63
2019-01-29T13:48:10.678Z,1.44
2019-01-29T13:50:44.975Z,1.48
2019-01-29T13:53:16.340Z,1.48
2019-01-29T13:55:46.587Z,1.54
2019-01-29T13:58:16.803Z,1.76
2019-01-29T14:00:47.029Z,1.76
2019-01-29T14:03:18.634Z,1.77
2019-01-29T14:05:49.910Z,1.78
2019-01-29T14:08:20.106Z,1.84
2019-01-29T14:10:50.423Z,1.79
2019-01-29T14:13:28.270Z,1.86
2019-01-29T14:15:58.521Z,1.72
2019-01-29T14:18:30.844Z,1.86
2019-01-29T14:21:01.086Z,1.75
2019-01-29T14:23:31.310Z,1.74
2019-01-29T14:26:03.472Z,1.84
2019-01-29T14:28:37.164Z,1.84
2019-01-29T14:31:07.547Z,1.91
2019-01-29T14:33:41.863Z,1.88
2019-01-29T14:36:22.734Z,1.91
2019-01-29T14:39:21.184Z,1.88
2019-01-29T14:41:54.172Z,1.87
2019-01-29T14:44:24.411Z,1.82
2019-01-29T14:46:55.872Z,1.70
2019-01-29T14:49:28.087Z,1.84
2019-01-29T14:51:59.984Z,1.90
2019-01-29T14:54:31.429Z,2.00
2019-01-29T14:57:01.701Z,1.96
2019-01-29T14:59:33.106Z,1.94
2019-01-29T15:02:03.365Z,1.94
2019-01-29T15:04:33.603Z,1.89
2019-01-29T15:07:04.720Z,1.85
2019-01-29T15:09:37.063Z,1.83
2019-01-29T15:12:07.376Z,1.76
2019-01-29T15:14:37.827Z,1.75
2019-01-29T15:17:10.261Z,1.78
2019-01-29T15:19:41.634Z,1.78
2019-01-29T15:22:11.890Z,1.75
2019-01-29T15:24:43.310Z,1.75
2019-01-29T15:27:13.558Z,1.65
2019-01-29T15:29:47.332Z,1.50
2019-01-29T15:32:21.350Z,1.46
2019-01-29T15:34:55.789Z,1.50
2019-01-29T15:37:26.120Z,1.52
2019-01-29T15:39:57.561Z,1.38
2019-01-29T15:42:27.802Z,1.43
2019-01-29T15:44:59.214Z,1.38
2019-01-29T15:47:32.245Z,1.38
2019-01-29T15:50:06.591Z,1.17
2019-01-29T15:52:36.987Z,1.34
2019-01-29T15:55:11.605Z,1.34
2019-01-29T15:57:42.095Z,1.35
2019-01-29T16:00:18.520Z,1.37
2019-01-29T16:02:50.600Z,1.32
2019-01-29T16:05:26.268Z,1.39
2019-01-29T16:07:57.365Z,1.39
2019-01-29T16:10:45.541Z,1.33
2019-01-29T16:13:20.678Z,1.46
2019-01-29T16:15:59.257Z,1.29
2019-01-29T16:18:30.699Z,1.29
2019-01-29T16:21:01.339Z,1.38
2019-01-29T16:23:35.066Z,1.34
2019-01-29T16:26:05.885Z,1.34
2019-01-29T16:28:36.309Z,1.34
2019-01-29T16:31:07.757Z,1.36
2019-01-29T16:33:38.742Z,1.41
2019-01-29T16:36:09.131Z,1.46
2019-01-29T16:38:41.506Z,1.46
2019-01-29T16:41:12.945Z,1.52
2019-01-29T16:43:44.422Z,1.55
2019-01-29T16:46:14.681Z,1.54
2019-01-29T16:48:45.304Z,1.56
2019-01-29T16:51:17.301Z,1.60
2019-01-29T16:53:47.745Z,1.60
2019-01-29T16:56:19.167Z,1.58
2019-01-29T16:58:49.446Z,1.54
2019-01-29T17:01:19.673Z,1.50
2019-01-29T17:03:51.468Z,1.51
2019-01-29T17:06:21.948Z,1.37
2019-01-29T17:08:52.488Z,1.37
2019-01-29T17:11:22.738Z,1.40
2019-01-29T17:13:53.228Z,1.35
2019-01-29T17:16:27.450Z,1.28
2019-01-29T17:18:58.903Z,1.20
2019-01-29T17:21:29.125Z,1.01
2019-01-29T17:24:00.569Z,0.97
2019-01-29T17:26:31.979Z,0.92
2019-01-29T17:29:02.359Z,0.86
2019-01-29T17:31:34.603Z,0.86
2019-01-29T17:34:06.070Z,0.78
2019-01-29T17:36:37.513Z,0.78
2019-01-29T17:39:09.780Z,0.71
2019-01-29T17:41:40.112Z,0.71
2019-01-29T17:44:10.424Z,0.61
2019-01-29T17:46:42.696Z,0.58
2019-01-29T17:49:15.245Z,0.58
2019-01-29T17:51:48.164Z,0.53
2019-01-29T17:54:20.131Z,0.46
2019-01-29T17:56:50.764Z,0.46
2019-01-29T17:59:21.222Z,0.51
2019-01-29T18:01:54.322Z,0.52
2019-01-29T18:04:27.568Z,0.52
2019-01-29T18:06:57.964Z,0.51
2019-01-29T18:09:28.842Z,0.51
2019-01-29T18:11:59.461Z,0.51
2019-01-29T18:14:32.440Z,0.53
2019-01-29T18:17:02.846Z,0.54
2019-01-29T18:19:33.090Z,0.45
2019-01-29T18:22:04.526Z,0.48
2019-01-29T18:24:35.700Z,0.60
2019-01-29T18:27:08.049Z,0.74
2019-01-29T18:29:38.312Z,0.74
2019-01-29T18:32:09.734Z,0.79
2019-01-29T18:34:41.354Z,0.86
2019-01-29T18:37:11.716Z,0.86
2019-01-29T18:39:43.177Z,0.88
2019-01-29T18:42:16.225Z,0.88
2019-01-29T18:44:46.478Z,0.91
2019-01-29T18:47:16.938Z,0.89
2019-01-29T18:49:51.245Z,0.89
2019-01-29T18:52:22.973Z,0.91
2019-01-29T18:54:53.423Z,0.94
2019-01-29T18:57:23.941Z,0.99
2019-01-29T18:59:56.626Z,1.01
2019-01-29T19:02:27.145Z,0.97
2019-01-29T19:04:58.626Z,1.00
2019-01-29T19:07:30.056Z,1.04
2019-01-29T19:10:04.480Z,1.05
2019-01-29T19:12:34.791Z,1.08
2019-01-29T19:15:08.370Z,1.07
2019-01-29T19:17:40.879Z,1.10
2019-01-29T19:20:14.159Z,1.12
2019-01-29T19:22:44.868Z,1.12
2019-01-29T19:25:16.496Z,1.12
2019-01-29T19:27:46.915Z,1.11
2019-01-29T19:30:19.988Z,1.08
2019-01-29T19:32:50.099Z,1.03
2019-01-29T19:35:23.114Z,1.03
2019-01-29T19:37:54.526Z,1.01
2019-01-29T19:40:24.800Z,1.06
2019-01-29T19:42:56.190Z,1.10
2019-01-29T19:45:32.481Z,1.12
2019-01-29T19:48:06.891Z,1.15
2019-01-29T19:50:38.842Z,1.17
2019-01-29T19:53:09.148Z,1.10
2019-01-29T19:55:42.238Z,1.10
2019-01-29T19:58:12.601Z,1.15
2019-01-29T20:00:43.262Z,1.04
2019-01-29T20:03:15.884Z,1.09
2019-01-29T20:05:48.483Z,1.11
2019-01-29T20:08:18.707Z,0.95
2019-01-29T20:10:50.368Z,1.02
2019-01-29T20:13:22.329Z,1.02
2019-01-29T20:15:58.416Z,1.00
2019-01-29T20:18:28.983Z,0.86
2019-01-29T20:21:00.974Z,0.91
2019-01-29T20:23:31.692Z,0.92
2019-01-29T20:26:03.482Z,0.97
2019-01-29T20:28:42.176Z,0.99
2019-01-29T20:31:05.890Z,1.02
2019-01-29T20:33:40.762Z,1.02
2019-01-29T20:36:11.141Z,0.97
2019-01-29T20:38:43.830Z,1.00
2019-01-29T20:41:14.322Z,1.00
2019-01-29T20:43:44.598Z,0.94
2019-01-29T20:46:15.462Z,0.94
2019-01-29T20:48:46.715Z,0.97
2019-01-29T20:51:17.084Z,0.98
2019-01-29T20:53:48.741Z,0.98
2019-01-29T20:56:20.886Z,0.93
2019-01-29T20:58:53.129Z,0.87
2019-01-29T21:01:24.160Z,0.87
2019-01-29T21:03:54.930Z,0.85
2019-01-29T21:06:26.474Z,1.01
2019-01-29T21:08:58.161Z,0.93
2019-01-29T21:11:32.541Z,1.08
2019-01-29T21:14:04.444Z,1.12
2019-01-29T21:16:35.951Z,1.00
2019-01-29T21:19:06.432Z,1.00
2019-01-29T21:21:39.407Z,1.11
2019-01-29T21:24:10.870Z,1.16
2019-01-29T21:26:41.511Z,1.15
2019-01-29T21:29:12.853Z,1.13
2019-01-29T21:31:45.341Z,1.11
2019-01-29T21:34:15.757Z,1.09
2019-01-29T21:36:48.694Z,1.04
2019-01-29T21:39:18.978Z,1.08
2019-01-29T21:41:50.389Z,1.11
2019-01-29T21:44:20.916Z,1.10
2019-01-29T21:46:51.190Z,1.13
2019-01-29T21:49:21.726Z,1.13
2019-01-29T21:51:54.683Z,1.08
2019-01-29T21:54:26.093Z,1.08
2019-01-29T21:56:56.339Z,1.01
2019-01-29T21:59:28.215Z,0.90
2019-01-29T22:01:58.632Z,1.01
2019-01-29T22:04:33.788Z,1.02
2019-01-29T22:07:06.746Z,1.08
2019-01-29T22:09:43.586Z,1.10
2019-01-29T22:12:15.023Z,1.08
2019-01-29T22:14:45.384Z,1.10
2019-01-29T22:17:15.926Z,1.05
2019-01-29T22:19:47.767Z,1.11
2019-01-29T22:22:18.241Z,1.11
2019-01-29T22:24:49.657Z,1.18
2019-01-29T22:27:25.526Z,1.03
2019-01-29T22:29:57.490Z,1.16
2019-01-29T22:32:30.607Z,1.06
2019-01-29T22:35:00.843Z,1.13
2019-01-29T22:37:31.087Z,1.15
2019-01-29T22:40:01.315Z,1.14
2019-01-29T22:42:31.730Z,1.11
2019-01-29T22:45:02.012Z,1.13
2019-01-29T22:47:32.425Z,1.14
2019-01-29T22:50:02.631Z,1.14
2019-01-29T22:52:32.944Z,1.14
2019-01-29T22:55:07.753Z,1.14
2019-01-29T22:57:37.981Z,1.09
2019-01-29T23:00:49.402Z,1.08
2019-01-29T23:03:42.042Z,1.10
2019-01-29T23:06:15.514Z,1.10
2019-01-29T23:08:45.760Z,1.11
2019-01-29T23:11:15.992Z,1.11
2019-01-29T23:13:47.145Z,1.04
2019-01-29T23:16:17.352Z,1.10
2019-01-29T23:18:48.373Z,1.12
2019-01-29T23:21:18.602Z,1.12
2019-01-29T23:23:48.829Z,1.16
2019-01-29T23:26:19.207Z,1.16
2019-01-29T23:28:49.432Z,1.18
2019-01-29T23:31:19.662Z,1.21
2019-01-29T23:33:49.930Z,1.17
2019-01-29T23:36:20.147Z,1.10
2019-01-29T23:38:50.567Z,1.11
2019-01-29T23:41:20.786Z,1.16
2019-01-29T23:43:51.015Z,1.16
2019-01-29T23:46:22.492Z,1.17
2019-01-29T23:48:52.735Z,1.16
2019-01-29T23:51:24.210Z,1.15
2019-01-29T23:53:54.432Z,1.19
2019-01-29T23:56:26.108Z,1.19
2019-01-29T23:58:56.341Z,1.22
